createdAt,value
2023-01-10T00:03:09.215Z,16.75
2023-01-10T00:06:41.296Z,14.50
2023-01-10T00:10:14.076Z,16.40
2023-01-10T00:13:46.326Z,16.13
2023-01-10T00:17:18.767Z,14.63
2023-01-10T00:20:51.205Z,15.85
2023-01-10T00:24:23.756Z,13.37
2023-01-10T00:28:25.874Z,15.02
2023-01-10T00:31:57.763Z,14.43
2023-01-10T00:35:29.853Z,15.30
2023-01-10T00:39:01.643Z,15.10
2023-01-10T00:42:52.056Z,11.60
2023-01-10T00:46:24.613Z,13.65
2023-01-10T00:49:56.677Z,12.77
2023-01-10T00:53:28.792Z,14.30
2023-01-10T00:57:01.071Z,12.80
2023-01-10T01:00:32.959Z,10.13
2023-01-10T01:04:05.116Z,9.57
2023-01-10T01:07:36.864Z,10.90
2023-01-10T01:11:09.082Z,10.07
2023-01-10T01:14:40.864Z,10.05
2023-01-10T01:18:15.095Z,10.60
2023-01-10T01:21:46.876Z,9.82
2023-01-10T01:25:19.109Z,9.93
2023-01-10T01:28:51.080Z,8.75
2023-01-10T01:32:24.279Z,10.27
2023-01-10T01:35:56.139Z,10.10
2023-01-10T01:39:28.255Z,9.48
2023-01-10T01:43:00.174Z,7.82
2023-01-10T01:46:34.629Z,7.37
2023-01-10T01:50:10.358Z,9.70
2023-01-10T01:53:49.516Z,7.75
2023-01-10T01:57:26.208Z,9.43
2023-01-10T02:00:58.704Z,9.10
2023-01-10T02:04:54.479Z,9.25
2023-01-10T02:08:26.611Z,8.57
2023-01-10T02:11:58.463Z,8.73
2023-01-10T02:15:31.019Z,8.70
2023-01-10T02:19:06.456Z,7.68
2023-01-10T02:23:17.609Z,6.93
2023-01-10T02:27:13.120Z,7.50
2023-01-10T02:30:56.995Z,8.02
2023-01-10T02:34:41.042Z,7.95
2023-01-10T02:38:22.476Z,7.70
2023-01-10T02:42:05.081Z,7.30
2023-01-10T02:45:49.270Z,7.22
2023-01-10T02:49:21.177Z,8.40
2023-01-10T02:52:53.689Z,7.50
2023-01-10T02:56:34.313Z,8.32
2023-01-10T03:00:09.926Z,8.30
2023-01-10T03:04:05.227Z,6.50
2023-01-10T03:07:43.041Z,7.47
2023-01-10T03:11:14.940Z,7.30
2023-01-10T03:14:48.144Z,7.20
2023-01-10T03:18:36.441Z,6.75
2023-01-10T03:22:11.024Z,6.90
2023-01-10T03:25:44.754Z,7.30
2023-01-10T03:29:25.877Z,6.43
2023-01-10T03:33:00.044Z,7.70
2023-01-10T03:36:47.726Z,6.53
2023-01-10T03:40:42.603Z,6.13
2023-01-10T03:44:39.355Z,6.28
2023-01-10T03:48:14.677Z,5.22
2023-01-10T03:51:48.574Z,5.80
2023-01-10T03:55:23.795Z,4.72
2023-01-10T03:58:55.857Z,6.28
2023-01-10T04:02:30.704Z,5.00
2023-01-10T04:06:04.103Z,5.18
2023-01-10T04:09:35.873Z,4.78
2023-01-10T04:13:08.040Z,5.50
2023-01-10T04:16:39.849Z,5.47
2023-01-10T04:20:12.106Z,5.00
2023-01-10T04:23:44.327Z,5.50
2023-01-10T04:27:16.380Z,4.87
2023-01-10T04:30:48.122Z,4.82
2023-01-10T04:34:20.413Z,4.63
2023-01-10T04:37:52.131Z,4.83
2023-01-10T04:41:24.163Z,4.20
2023-01-10T04:44:56.048Z,4.60
2023-01-10T04:48:28.129Z,4.97
2023-01-10T04:52:00.083Z,4.85
2023-01-10T04:55:33.201Z,5.00
2023-01-10T04:59:06.591Z,5.43
2023-01-10T05:02:48.040Z,4.30
2023-01-10T05:06:21.181Z,5.32
2023-01-10T05:09:53.407Z,4.95
2023-01-10T05:13:26.248Z,3.83
2023-01-10T05:16:59.201Z,5.43
2023-01-10T05:20:31.003Z,5.05
2023-01-10T05:24:03.079Z,4.97
2023-01-10T05:27:34.902Z,4.72
2023-01-10T05:31:12.235Z,5.07
2023-01-10T05:34:43.951Z,4.50
2023-01-10T05:38:16.230Z,4.67
2023-01-10T05:41:48.143Z,5.00
2023-01-10T05:45:20.555Z,4.57
2023-01-10T05:48:53.240Z,5.50
2023-01-10T05:52:28.159Z,5.03
2023-01-10T05:56:03.337Z,5.03
2023-01-10T05:59:35.626Z,5.03
2023-01-10T06:03:07.482Z,5.45
2023-01-10T06:06:39.682Z,4.13
2023-01-10T06:10:11.585Z,4.63
2023-01-10T06:13:43.629Z,5.23
2023-01-10T06:17:15.501Z,4.97
2023-01-10T06:20:47.723Z,3.78
2023-01-10T06:24:19.457Z,4.63
2023-01-10T06:27:51.573Z,4.53
2023-01-10T06:31:23.454Z,4.30
2023-01-10T06:34:55.721Z,4.77
2023-01-10T06:38:27.495Z,5.20
2023-01-10T06:41:59.642Z,4.40
2023-01-10T06:45:31.499Z,3.95
2023-01-10T06:49:04.080Z,5.83
2023-01-10T06:52:35.922Z,4.95
2023-01-10T06:56:09.824Z,5.32
2023-01-10T06:59:41.974Z,5.27
2023-01-10T07:03:13.937Z,4.47
2023-01-10T07:06:45.712Z,2.78
2023-01-10T07:10:18.153Z,4.83
2023-01-10T07:13:51.342Z,4.97
2023-01-10T07:17:23.353Z,5.53
2023-01-10T07:20:55.614Z,5.18
2023-01-10T07:24:27.731Z,5.87
2023-01-10T07:27:59.567Z,6.40
2023-01-10T07:31:31.599Z,5.80
2023-01-10T07:35:03.568Z,5.40
2023-01-10T07:38:35.679Z,4.18
2023-01-10T07:42:07.401Z,5.68
2023-01-10T07:45:39.537Z,4.80
2023-01-10T07:49:11.540Z,5.05
2023-01-10T07:52:43.598Z,6.85
2023-01-10T07:56:15.528Z,6.20
2023-01-10T07:59:47.709Z,5.47
2023-01-10T08:03:19.732Z,5.68
2023-01-10T08:06:54.753Z,6.60
2023-01-10T08:10:27.675Z,6.17
2023-01-10T08:13:59.809Z,5.40
2023-01-10T08:17:35.098Z,6.90
2023-01-10T08:21:07.307Z,4.77
2023-01-10T08:24:39.131Z,4.03
2023-01-10T08:28:12.095Z,5.72
2023-01-10T08:31:43.837Z,6.10
2023-01-10T08:35:15.877Z,5.13
2023-01-10T08:38:48.016Z,5.68
2023-01-10T08:42:20.054Z,5.03
2023-01-10T08:45:51.926Z,4.87
2023-01-10T08:49:24.401Z,6.20
2023-01-10T08:52:59.825Z,5.38
2023-01-10T08:56:32.081Z,5.30
2023-01-10T09:00:05.153Z,6.93
2023-01-10T09:03:40.536Z,6.00
2023-01-10T09:07:12.360Z,6.32
2023-01-10T09:10:44.411Z,5.00
2023-01-10T09:14:16.488Z,6.22
2023-01-10T09:17:50.058Z,6.38
2023-01-10T09:21:21.814Z,5.63
2023-01-10T09:24:53.882Z,6.28
2023-01-10T09:28:25.700Z,5.72
2023-01-10T09:31:57.880Z,5.10
2023-01-10T09:35:30.756Z,6.70
2023-01-10T09:39:04.448Z,6.97
2023-01-10T09:42:44.943Z,6.65
2023-01-10T09:46:29.455Z,7.57
2023-01-10T09:50:15.494Z,7.05
2023-01-10T09:53:48.860Z,7.13
2023-01-10T09:57:22.403Z,6.47
2023-01-10T10:00:58.202Z,7.47
2023-01-10T10:04:36.771Z,7.28
2023-01-10T10:08:16.576Z,5.20
2023-01-10T10:11:48.263Z,5.95
2023-01-10T10:15:26.402Z,7.43
2023-01-10T10:19:28.963Z,7.80
2023-01-10T10:23:27.636Z,6.93
2023-01-10T10:27:08.641Z,7.90
2023-01-10T10:31:08.683Z,6.85
2023-01-10T10:34:47.025Z,7.33
2023-01-10T10:38:26.675Z,7.15
2023-01-10T10:41:59.017Z,7.15
2023-01-10T10:45:41.339Z,6.87
2023-01-10T10:49:36.610Z,6.68
2023-01-10T10:53:11.378Z,7.80
2023-01-10T10:56:44.139Z,5.85
2023-01-10T11:00:19.876Z,5.80
2023-01-10T11:03:53.812Z,5.95
2023-01-10T11:07:29.745Z,6.22
2023-01-10T11:11:04.003Z,6.73
2023-01-10T11:14:48.716Z,6.18
2023-01-10T11:18:24.079Z,6.97
2023-01-10T11:21:56.246Z,7.53
2023-01-10T11:25:28.232Z,7.65
2023-01-10T11:29:24.809Z,7.55
2023-01-10T11:33:06.023Z,7.32
2023-01-10T11:36:53.696Z,7.77
2023-01-10T11:40:30.427Z,7.40
2023-01-10T11:44:21.458Z,7.85
2023-01-10T11:48:34.249Z,7.63
2023-01-10T11:52:15.024Z,7.15
2023-01-10T11:55:48.563Z,5.97
2023-01-10T11:59:20.685Z,5.37
2023-01-10T12:02:52.643Z,5.43
2023-01-10T12:06:24.814Z,6.15
2023-01-10T12:09:59.327Z,5.20
2023-01-10T12:13:44.765Z,5.13
2023-01-10T12:17:22.152Z,5.65
2023-01-10T12:20:55.168Z,6.25
2023-01-10T12:24:34.542Z,6.90
2023-01-10T12:28:29.235Z,5.05
2023-01-10T12:32:03.447Z,5.80
2023-01-10T12:36:05.594Z,5.68
2023-01-10T12:39:43.793Z,5.60
2023-01-10T12:43:56.155Z,6.07
2023-01-10T12:47:58.600Z,6.13
2023-01-10T12:51:31.533Z,4.93
2023-01-10T12:55:04.089Z,5.03
2023-01-10T12:58:45.292Z,4.50
2023-01-10T13:02:20.953Z,4.80
2023-01-10T13:05:54.340Z,5.07
2023-01-10T13:09:29.236Z,4.68
2023-01-10T13:13:29.006Z,4.07
2023-01-10T13:17:30.438Z,3.87
2023-01-10T13:21:13.592Z,4.57
2023-01-10T13:25:02.053Z,4.20
2023-01-10T13:28:36.920Z,5.67
2023-01-10T13:32:29.122Z,4.78
2023-01-10T13:36:17.087Z,4.97
2023-01-10T13:40:01.983Z,4.97
2023-01-10T13:43:37.248Z,4.63
2023-01-10T13:47:09.468Z,5.13
2023-01-10T13:50:49.011Z,5.60
2023-01-10T13:54:26.748Z,5.07
2023-01-10T13:58:44.867Z,6.25
2023-01-10T14:02:34.103Z,6.60
2023-01-10T14:06:21.290Z,5.97
2023-01-10T14:10:00.589Z,6.03
2023-01-10T14:13:32.922Z,6.82
2023-01-10T14:17:32.019Z,6.07
2023-01-10T14:21:07.055Z,8.00
2023-01-10T14:24:44.057Z,7.40
2023-01-10T14:28:29.719Z,7.20
2023-01-10T14:32:03.489Z,7.47
2023-01-10T14:35:43.574Z,9.60
2023-01-10T14:39:16.645Z,7.80
2023-01-10T14:42:52.435Z,7.50
2023-01-10T14:46:44.928Z,6.75
2023-01-10T14:50:28.929Z,5.68
2023-01-10T14:54:11.236Z,6.68
2023-01-10T14:57:57.211Z,6.53
2023-01-10T15:01:30.586Z,6.38
2023-01-10T15:05:09.840Z,6.28
2023-01-10T15:08:41.915Z,6.17
2023-01-10T15:12:15.625Z,7.00
2023-01-10T15:15:49.331Z,6.50
2023-01-10T15:19:23.015Z,7.63
2023-01-10T15:23:01.358Z,6.28
2023-01-10T15:26:34.451Z,6.95
2023-01-10T15:30:10.183Z,4.97
2023-01-10T15:33:45.456Z,7.83
2023-01-10T15:37:35.306Z,6.85
2023-01-10T15:41:07.226Z,7.05
2023-01-10T15:44:45.040Z,5.43
2023-01-10T15:48:37.638Z,7.20
2023-01-10T15:52:23.146Z,6.68
2023-01-10T15:55:59.091Z,8.03
2023-01-10T15:59:39.190Z,7.65
2023-01-10T16:03:34.780Z,7.28
2023-01-10T16:07:21.696Z,6.57
2023-01-10T16:10:59.128Z,6.43
2023-01-10T16:14:31.991Z,7.32
2023-01-10T16:18:04.438Z,7.95
2023-01-10T16:21:41.036Z,7.20
2023-01-10T16:25:18.604Z,6.45
2023-01-10T16:28:52.341Z,6.70
2023-01-10T16:32:24.244Z,7.53
2023-01-10T16:35:58.602Z,7.93
2023-01-10T16:39:30.387Z,8.63
2023-01-10T16:43:21.000Z,8.30
2023-01-10T16:46:55.561Z,7.97
2023-01-10T16:50:27.705Z,7.63
2023-01-10T16:54:00.473Z,6.80
2023-01-10T16:57:35.404Z,6.73
2023-01-10T17:01:13.931Z,6.72
2023-01-10T17:04:46.618Z,6.50
2023-01-10T17:08:23.878Z,8.50
2023-01-10T17:12:04.326Z,8.55
2023-01-10T17:15:39.209Z,8.10
2023-01-10T17:19:13.900Z,15.65
2023-01-10T17:22:45.627Z,11.37
2023-01-10T17:26:22.003Z,10.30
2023-01-10T17:29:54.022Z,7.90
2023-01-10T17:33:27.031Z,7.10
2023-01-10T17:36:58.882Z,7.82
2023-01-10T17:40:31.064Z,8.20
2023-01-10T17:44:02.957Z,8.67
2023-01-10T17:47:35.133Z,9.85
2023-01-10T17:51:07.613Z,13.30
2023-01-10T17:54:39.769Z,11.13
2023-01-10T17:58:11.575Z,7.63
2023-01-10T18:01:43.889Z,9.13
2023-01-10T18:05:15.702Z,16.25
2023-01-10T18:08:47.873Z,12.83
2023-01-10T18:12:19.582Z,11.50
2023-01-10T18:15:52.400Z,12.18
2023-01-10T18:19:24.119Z,12.23
2023-01-10T18:23:15.092Z,10.65
2023-01-10T18:26:47.383Z,10.55
2023-01-10T18:30:21.899Z,11.13
2023-01-10T18:33:53.711Z,9.70
2023-01-10T18:37:25.916Z,10.18
2023-01-10T18:40:57.824Z,11.27
2023-01-10T18:44:30.071Z,11.07
2023-01-10T18:48:02.385Z,10.45
2023-01-10T18:51:36.106Z,9.45
2023-01-10T18:55:08.337Z,10.50
2023-01-10T18:58:41.987Z,11.05
2023-01-10T19:02:15.560Z,10.05
2023-01-10T19:05:47.898Z,11.10
2023-01-10T19:09:19.807Z,11.17
2023-01-10T19:12:51.992Z,11.50
2023-01-10T19:16:26.021Z,10.80
2023-01-10T19:19:58.058Z,10.57
2023-01-10T19:23:30.827Z,8.30
2023-01-10T19:27:03.034Z,9.60
2023-01-10T19:30:34.952Z,10.30
2023-01-10T19:34:07.123Z,9.98
2023-01-10T19:37:38.967Z,10.27
2023-01-10T19:41:11.433Z,9.23
2023-01-10T19:44:43.443Z,5.53
2023-01-10T19:48:15.828Z,10.23
2023-01-10T19:51:51.336Z,10.35
2023-01-10T19:55:23.462Z,9.43
2023-01-10T19:58:55.382Z,9.63
2023-01-10T20:02:27.478Z,11.00
2023-01-10T20:06:06.202Z,10.80
2023-01-10T20:09:38.430Z,9.70
2023-01-10T20:13:10.558Z,9.50
2023-01-10T20:16:42.872Z,10.82
2023-01-10T20:20:16.810Z,10.20
2023-01-10T20:23:49.027Z,11.43
2023-01-10T20:27:21.307Z,11.25
2023-01-10T20:30:54.402Z,10.30
2023-01-10T20:34:26.977Z,10.27
2023-01-10T20:37:59.199Z,9.85
2023-01-10T20:41:31.418Z,10.83
2023-01-10T20:45:04.573Z,9.85
2023-01-10T20:48:37.330Z,9.40
2023-01-10T20:52:09.930Z,7.47
2023-01-10T20:55:41.770Z,8.97
2023-01-10T20:59:13.847Z,7.05
2023-01-10T21:02:45.688Z,6.78
2023-01-10T21:06:19.745Z,5.70
2023-01-10T21:09:51.849Z,5.88
2023-01-10T21:13:24.161Z,5.03
2023-01-10T21:16:55.897Z,5.77
2023-01-10T21:20:28.141Z,5.45
2023-01-10T21:24:00.012Z,6.35
2023-01-10T21:27:32.136Z,5.88
2023-01-10T21:31:04.705Z,6.97
2023-01-10T21:34:36.746Z,6.57
2023-01-10T21:38:09.024Z,5.32
2023-01-10T21:41:59.703Z,6.80
2023-01-10T21:45:32.555Z,6.32
2023-01-10T21:49:05.204Z,6.28
2023-01-10T21:52:37.347Z,8.40
2023-01-10T21:56:09.739Z,9.52
2023-01-10T21:59:41.700Z,9.70
2023-01-10T22:03:13.838Z,9.90
2023-01-10T22:06:46.174Z,7.60
2023-01-10T22:10:18.647Z,8.68
2023-01-10T22:13:53.052Z,9.68
2023-01-10T22:17:25.561Z,9.07
2023-01-10T22:20:58.444Z,10.90
2023-01-10T22:24:30.824Z,10.00
2023-01-10T22:28:02.778Z,9.37
2023-01-10T22:31:34.989Z,9.32
2023-01-10T22:35:06.940Z,9.75
2023-01-10T22:38:39.268Z,8.82
2023-01-10T22:42:11.044Z,10.57
2023-01-10T22:45:43.389Z,8.98
2023-01-10T22:49:15.286Z,8.85
2023-01-10T22:52:48.629Z,7.47
2023-01-10T22:56:21.014Z,9.60
2023-01-10T22:59:53.025Z,9.60
2023-01-10T23:03:25.379Z,11.30
2023-01-10T23:06:58.727Z,9.73
2023-01-10T23:10:31.194Z,10.55
2023-01-10T23:14:03.018Z,9.50
2023-01-10T23:17:35.590Z,10.03
2023-01-10T23:21:08.311Z,10.13
2023-01-10T23:24:40.449Z,9.40
2023-01-10T23:28:12.251Z,10.03
2023-01-10T23:31:45.027Z,9.18
2023-01-10T23:35:16.949Z,9.45
2023-01-10T23:38:49.051Z,9.63
2023-01-10T23:42:21.058Z,9.50
2023-01-10T23:45:53.754Z,9.15
2023-01-10T23:49:25.949Z,9.73
2023-01-10T23:52:58.064Z,9.70
2023-01-10T23:56:29.891Z,9.90
